Time;durP1;ratioP1;P1;durP2;ratioP2;P2;SDS_P1;SDS_P2;PMS_P1;PMS_P2;Temp;Humidity;BMP_temperature;BMP_pressure;BME280_temperature;BME280_humidity;BME280_pressure;Samples;Min_cycle;Max_cycle;Signal;HPM_P1;HPM_P2
2023/05/06 00:00:59;;;;;;;14.73;11.80;;;15.30;99.90;;;;;;5079977;28;20036;-81
2023/05/06 00:03:25;;;;;;;15.80;12.55;;;17.20;99.90;;;;;;5049868;28;20072;-82
2023/05/06 00:05:51;;;;;;;14.23;11.60;;;14.80;99.90;;;;;;5072092;28;20836;-78
2023/05/06 00:08:17;;;;;;;15.10;11.50;;;17.30;99.90;;;;;;5063832;28;20377;-77
2023/05/06 00:10:42;;;;;;;13.73;11.00;;;16.90;99.90;;;;;;5067219;28;20465;-79
2023/05/06 00:13:08;;;;;;;15.30;11.98;;;14.50;99.90;;;;;;5055975;28;20093;-76
2023/05/06 00:15:35;;;;;;;16.08;12.02;;;15.10;99.90;;;;;;5083247;28;20047;-76
2023/05/06 00:18:01;;;;;;;18.27;13.45;;;15.00;99.90;;;;;;5071285;28;20032;-79
2023/05/06 00:20:27;;;;;;;15.90;12.15;;;17.30;99.90;;;;;;5066012;28;20058;-79
2023/05/06 00:22:53;;;;;;;23.20;13.65;;;16.50;99.90;;;;;;5068467;28;20304;-81
2023/05/06 00:25:19;;;;;;;14.30;10.98;;;14.30;99.90;;;;;;5086084;28;20039;-81
2023/05/06 00:27:45;;;;;;;16.85;12.05;;;17.20;99.90;;;;;;5084410;28;20590;-78
2023/05/06 00:30:11;;;;;;;14.70;10.30;;;16.40;99.90;;;;;;5054558;28;20109;-77
2023/05/06 00:32:37;;;;;;;13.85;9.77;;;14.00;99.90;;;;;;5069156;28;20047;-78
2023/05/06 00:35:03;;;;;;;15.18;11.40;;;16.20;99.90;;;;;;5085308;28;20689;-80
2023/05/06 00:37:29;;;;;;;15.23;10.82;;;14.40;99.90;;;;;;5053380;28;20043;-78
2023/05/06 00:39:55;;;;;;;13.93;10.02;;;14.80;99.90;;;;;;5052948;28;20055;-82
2023/05/06 00:42:22;;;;;;;17.80;11.13;;;15.60;99.90;;;;;;5067394;28;20429;-78
2023/05/06 00:44:48;;;;;;;13.88;9.88;;;13.90;99.90;;;;;;5065385;28;20044;-80
2023/05/06 00:47:14;;;;;;;13.35;10.25;;;16.10;99.90;;;;;;5071174;28;20044;-78
2023/05/06 00:49:40;;;;;;;16.40;10.80;;;14.70;99.90;;;;;;5072847;28;20039;-77
2023/05/06 00:52:07;;;;;;;13.32;10.00;;;15.60;99.90;;;;;;5053191;28;20052;-78
2023/05/06 00:54:33;;;;;;;16.83;10.48;;;13.70;99.90;;;;;;5073050;28;20490;-78
2023/05/06 00:56:58;;;;;;;18.63;11.48;;;16.80;99.90;;;;;;5088048;28;20133;-80
2023/05/06 00:59:24;;;;;;;14.70;10.77;;;16.10;99.90;;;;;;5072998;28;20665;-79
2023/05/06 01:01:52;;;;;;;15.07;11.25;;;16.00;99.90;;;;;;5072400;28;20370;-76
2023/05/06 01:04:20;;;;;;;14.88;10.25;;;16.80;99.90;;;;;;5084836;28;20044;-75
2023/05/06 01:06:48;;;;;;;13.50;9.98;;;13.60;99.90;;;;;;5090778;28;20048;-76
2023/05/06 01:09:30;;;;;;;12.90;10.05;;;15.30;99.90;;;;;;5088449;28;20048;-77
2023/05/06 01:12:27;;;;;;;12.73;8.57;;;14.40;99.90;;;;;;5089340;28;20046;-79
2023/05/06 01:15:00;;;;;;;14.93;9.63;;;16.50;99.90;;;;;;5089323;28;20485;-76
2023/05/06 01:17:28;;;;;;;10.93;9.25;;;16.10;99.90;;;;;;5064606;28;20035;-76
2023/05/06 01:19:58;;;;;;;15.82;11.13;;;15.80;99.90;;;;;;5086862;28;20079;-76
2023/05/06 01:22:26;;;;;;;18.30;10.75;;;14.70;99.90;;;;;;5069433;28;20130;-78
2023/05/06 01:24:52;;;;;;;16.17;9.43;;;16.40;99.90;;;;;;5089876;28;20052;-80
2023/05/06 01:27:18;;;;;;;14.98;9.18;;;16.60;99.90;;;;;;5073343;28;20082;-80
2023/05/06 01:29:45;;;;;;;10.85;8.30;;;16.70;99.90;;;;;;5057516;28;20047;-77
2023/05/06 01:32:42;;;;;;;10.90;8.80;;;15.10;99.90;;;;;;5090495;28;20028;-81
2023/05/06 01:35:07;;;;;;;10.90;7.35;;;13.30;99.90;;;;;;5089510;28;20136;-76
2023/05/06 01:38:10;;;;;;;14.32;8.73;;;14.70;99.90;;;;;;5088117;28;20135;-77
2023/05/06 01:40:37;;;;;;;9.73;8.38;;;16.70;99.90;;;;;;5101465;28;20521;-78
2023/05/06 01:43:06;;;;;;;14.18;8.77;;;14.70;99.90;;;;;;5072696;28;20046;-77
2023/05/06 01:45:34;;;;;;;13.05;8.82;;;14.40;99.90;;;;;;5087573;28;20063;-76
2023/05/06 01:48:00;;;;;;;12.90;8.90;;;15.10;99.90;;;;;;5089026;28;20059;-78
2023/05/06 01:50:27;;;;;;;14.88;9.63;;;15.00;99.90;;;;;;5087803;28;20044;-79
2023/05/06 01:53:01;;;;;;;10.63;8.27;;;14.30;99.90;;;;;;5062863;28;20055;-77
2023/05/06 01:55:27;;;;;;;10.37;8.30;;;16.30;99.90;;;;;;5072166;28;20056;-80
2023/05/06 01:57:55;;;;;;;10.80;8.55;;;14.60;99.90;;;;;;5054021;28;20106;-80
2023/05/06 02:00:21;;;;;;;9.73;7.70;;;14.90;99.90;;;;;;5087064;28;20058;-82
2023/05/06 02:02:46;;;;;;;10.82;8.93;;;16.00;99.90;;;;;;5069516;28;20047;-78
2023/05/06 02:05:12;;;;;;;10.85;8.15;;;16.20;99.90;;;;;;5052800;28;20556;-77
2023/05/06 02:07:38;;;;;;;10.90;8.35;;;14.90;99.90;;;;;;5076371;28;20602;-79
2023/05/06 02:10:04;;;;;;;12.75;9.15;;;14.30;99.90;;;;;;5085295;28;20055;-79
2023/05/06 02:12:30;;;;;;;17.40;9.15;;;13.80;99.90;;;;;;5051786;28;20483;-77
2023/05/06 02:14:56;;;;;;;13.05;9.38;;;13.80;99.90;;;;;;5070203;28;20040;-79
2023/05/06 02:17:21;;;;;;;13.43;9.45;;;13.70;99.90;;;;;;5070802;28;20813;-75
2023/05/06 02:19:47;;;;;;;11.80;9.27;;;15.30;99.90;;;;;;5086497;28;20038;-76
2023/05/06 02:22:13;;;;;;;20.05;9.27;;;14.60;99.90;;;;;;5049005;28;20047;-75
2023/05/06 02:24:38;;;;;;;12.32;9.65;;;16.30;99.90;;;;;;5086479;28;20059;-77
2023/05/06 02:27:05;;;;;;;12.02;8.90;;;15.70;99.90;;;;;;5051632;28;20044;-79
2023/05/06 02:29:31;;;;;;;9.60;8.23;;;13.70;99.90;;;;;;5082458;28;20128;-76
2023/05/06 02:31:56;;;;;;;10.45;8.90;;;15.40;99.90;;;;;;5087337;28;20122;-76
2023/05/06 02:34:22;;;;;;;11.73;9.07;;;13.90;99.90;;;;;;5069434;28;20113;-76
2023/05/06 02:36:48;;;;;;;15.07;9.77;;;16.00;99.90;;;;;;5071444;28;20489;-79
2023/05/06 02:39:13;;;;;;;11.77;9.27;;;14.00;99.90;;;;;;5063553;28;20051;-76
2023/05/06 02:41:39;;;;;;;11.82;9.27;;;14.00;99.90;;;;;;5070964;28;20047;-77
2023/05/06 02:44:05;;;;;;;11.18;9.32;;;14.00;99.90;;;;;;5096472;28;20059;-76
2023/05/06 02:46:31;;;;;;;11.38;8.73;;;15.90;99.90;;;;;;5068841;28;20188;-77
2023/05/06 02:48:56;;;;;;;12.38;9.48;;;13.90;99.90;;;;;;5088016;28;20044;-80
2023/05/06 02:51:22;;;;;;;13.38;8.48;;;15.20;99.90;;;;;;5050399;28;20052;-80
2023/05/06 02:53:48;;;;;;;11.85;8.73;;;15.70;99.90;;;;;;5066142;28;20123;-77
2023/05/06 02:56:13;;;;;;;15.50;9.23;;;15.30;99.90;;;;;;5086885;28;20129;-78
2023/05/06 02:58:39;;;;;;;12.68;8.57;;;15.70;99.90;;;;;;5069901;28;20032;-80
2023/05/06 03:01:05;;;;;;;29.75;8.50;;;13.10;99.90;;;;;;5064231;28;20667;-75
2023/05/06 03:03:32;;;;;;;46.47;9.15;;;15.40;99.90;;;;;;5052657;28;20048;-78
2023/05/06 03:05:57;;;;;;;41.42;8.10;;;13.70;99.90;;;;;;5070543;28;20032;-75
2023/05/06 03:08:23;;;;;;;46.28;7.38;;;15.50;99.90;;;;;;5085868;28;20127;-78
2023/05/06 03:10:49;;;;;;;43.45;6.07;;;15.00;99.90;;;;;;5084363;28;20040;-79
2023/05/06 03:13:15;;;;;;;52.35;6.40;;;15.10;99.90;;;;;;5068316;28;20123;-75
2023/05/06 03:15:40;;;;;;;29.83;5.03;;;14.40;99.90;;;;;;5085903;28;20131;-75
2023/05/06 03:18:06;;;;;;;37.47;5.85;;;13.30;99.90;;;;;;5071560;28;20044;-78
2023/05/06 03:20:32;;;;;;;38.58;6.35;;;13.40;99.90;;;;;;5050748;28;20132;-77
2023/05/06 03:22:58;;;;;;;26.02;5.13;;;12.70;99.90;;;;;;5116128;28;20119;-78
2023/05/06 03:25:23;;;;;;;62.92;6.45;;;14.90;99.90;;;;;;5050624;28;20127;-74
2023/05/06 03:27:49;;;;;;;65.85;5.85;;;14.60;99.90;;;;;;5088055;28;20135;-74
2023/05/06 03:30:15;;;;;;;60.00;6.70;;;13.10;99.90;;;;;;5070384;28;20071;-76
2023/05/06 03:32:41;;;;;;;47.33;6.72;;;13.20;99.90;;;;;;5066753;28;20412;-80
2023/05/06 03:35:07;;;;;;;105.05;10.02;;;12.70;99.90;;;;;;5087072;28;20048;-75
2023/05/06 03:37:32;;;;;;;84.97;7.05;;;14.50;99.90;;;;;;5084255;28;20136;-77
2023/05/06 03:39:59;;;;;;;193.48;12.48;;;13.60;99.90;;;;;;5069348;28;20658;-77
2023/05/06 03:42:25;;;;;;;88.90;8.60;;;12.70;99.90;;;;;;5070522;28;20692;-76
2023/05/06 03:44:51;;;;;;;39.42;6.68;;;14.90;99.90;;;;;;5091074;28;20040;-77
2023/05/06 03:47:16;;;;;;;66.82;8.38;;;13.40;99.90;;;;;;5058109;28;20044;-77
2023/05/06 03:49:42;;;;;;;76.38;8.20;;;13.90;99.90;;;;;;5073807;28;20050;-79
2023/05/06 03:52:08;;;;;;;73.03;8.60;;;13.00;99.90;;;;;;5070683;28;20044;-80
2023/05/06 03:54:33;;;;;;;92.40;9.95;;;14.10;99.90;;;;;;5069458;28;20048;-77
2023/05/06 03:56:59;;;;;;;190.43;18.08;;;14.20;99.90;;;;;;5089570;28;20040;-78
2023/05/06 03:59:25;;;;;;;118.38;14.73;;;13.00;99.90;;;;;;5072721;28;20047;-77
2023/05/06 04:01:51;;;;;;;70.75;11.32;;;14.80;99.90;;;;;;5073975;28;20036;-78
2023/05/06 04:04:16;;;;;;;44.08;8.60;;;14.60;99.90;;;;;;5072582;28;20112;-78
2023/05/06 04:06:43;;;;;;;45.45;11.02;;;14.30;99.90;;;;;;5073424;28;20127;-75
2023/05/06 04:09:08;;;;;;;25.13;9.10;;;12.70;99.90;;;;;;5056237;28;20048;-80
2023/05/06 04:11:35;;;;;;;22.63;9.02;;;14.60;99.90;;;;;;5068157;28;20419;-79
2023/05/06 04:14:00;;;;;;;21.23;9.10;;;12.90;99.90;;;;;;5089735;28;20052;-80
2023/05/06 04:16:26;;;;;;;10.70;8.77;;;15.30;99.90;;;;;;5072229;28;20036;-77
2023/05/06 04:18:51;;;;;;;14.30;8.00;;;13.80;99.90;;;;;;5090324;28;20412;-78
2023/05/06 04:21:17;;;;;;;11.27;8.68;;;15.40;99.90;;;;;;5064460;28;20139;-75
2023/05/06 04:23:43;;;;;;;10.52;8.13;;;14.80;99.90;;;;;;5089611;28;20036;-76
2023/05/06 04:26:09;;;;;;;17.95;10.75;;;15.50;99.90;;;;;;5090069;28;20679;-76
2023/05/06 04:28:35;;;;;;;14.50;10.70;;;15.50;99.90;;;;;;5073823;28;20029;-78
2023/05/06 04:31:01;;;;;;;19.98;11.90;;;13.40;99.90;;;;;;5074283;28;20044;-75
2023/05/06 04:33:28;;;;;;;19.30;11.82;;;13.60;99.90;;;;;;5069984;28;20066;-75
2023/05/06 04:35:58;;;;;;;13.07;10.68;;;12.90;99.90;;;;;;5088939;28;20055;-77
2023/05/06 04:38:25;;;;;;;13.85;10.00;;;13.00;99.90;;;;;;5070967;28;20047;-77
2023/05/06 04:40:51;;;;;;;45.50;10.77;;;12.90;99.90;;;;;;5079731;28;20472;-78
2023/05/06 04:43:17;;;;;;;21.23;9.68;;;15.10;99.90;;;;;;5059337;28;20068;-79
2023/05/06 04:45:48;;;;;;;15.02;9.88;;;14.90;99.90;;;;;;5082837;28;20173;-76
2023/05/06 04:48:16;;;;;;;11.52;9.80;;;14.90;99.90;;;;;;5074806;28;20120;-77
2023/05/06 04:50:41;;;;;;;13.82;10.68;;;13.70;99.90;;;;;;5089736;28;20043;-79
2023/05/06 04:53:08;;;;;;;15.93;10.38;;;14.90;99.90;;;;;;5087715;28;20447;-77
2023/05/06 04:55:34;;;;;;;12.00;10.07;;;13.00;99.90;;;;;;5072933;28;20486;-80
2023/05/06 04:57:59;;;;;;;14.50;10.85;;;14.70;99.90;;;;;;5088748;28;20120;-80
2023/05/06 05:00:26;;;;;;;13.23;11.10;;;14.40;99.90;;;;;;5074007;28;20656;-78
2023/05/06 05:02:52;;;;;;;11.07;8.95;;;14.10;99.90;;;;;;5073126;28;20063;-77
2023/05/06 05:05:18;;;;;;;12.07;9.68;;;14.70;99.90;;;;;;5077209;28;20028;-76
2023/05/06 05:07:43;;;;;;;10.23;8.98;;;14.50;99.90;;;;;;5099185;28;20855;-79
2023/05/06 05:10:09;;;;;;;10.63;9.20;;;13.60;99.90;;;;;;5074257;28;20036;-79
2023/05/06 05:12:35;;;;;;;10.18;8.32;;;13.20;99.90;;;;;;5054553;28;20047;-79
2023/05/06 05:15:01;;;;;;;10.30;8.52;;;13.90;99.90;;;;;;5074013;28;20033;-77
2023/05/06 05:17:28;;;;;;;9.80;8.57;;;13.60;99.90;;;;;;5073565;28;20422;-77
2023/05/06 05:19:53;;;;;;;10.20;9.10;;;13.30;99.90;;;;;;5088547;28;20047;-75
2023/05/06 05:22:19;;;;;;;9.93;8.88;;;15.70;99.90;;;;;;5057183;28;20037;-78
2023/05/06 05:24:45;;;;;;;10.23;8.90;;;14.20;99.90;;;;;;5052737;28;20044;-76
2023/05/06 05:27:11;;;;;;;11.05;9.30;;;13.60;99.90;;;;;;5072176;28;20036;-74
2023/05/06 05:29:37;;;;;;;11.15;9.68;;;15.90;99.90;;;;;;5089402;28;20044;-76
2023/05/06 05:32:03;;;;;;;15.27;12.20;;;15.80;99.90;;;;;;5088557;28;20040;-75
2023/05/06 05:34:29;;;;;;;15.30;11.73;;;16.30;99.90;;;;;;5086664;28;20086;-79
2023/05/06 05:36:56;;;;;;;12.25;10.18;;;15.70;99.90;;;;;;5085828;28;20051;-75
2023/05/06 05:39:22;;;;;;;17.20;12.95;;;13.60;99.90;;;;;;5088128;28;20496;-77
2023/05/06 05:41:48;;;;;;;18.27;13.20;;;13.90;99.90;;;;;;5087625;28;20044;-77
2023/05/06 05:44:14;;;;;;;15.95;12.50;;;15.30;99.90;;;;;;5071527;28;20207;-79
2023/05/06 05:46:40;;;;;;;16.35;12.05;;;16.10;99.90;;;;;;5087050;28;20123;-78
2023/05/06 05:49:06;;;;;;;18.13;13.77;;;16.80;99.90;;;;;;5072842;28;20040;-75
2023/05/06 05:51:32;;;;;;;15.35;13.02;;;13.80;99.90;;;;;;5071255;28;20568;-78
2023/05/06 05:53:58;;;;;;;12.68;10.73;;;13.80;99.90;;;;;;5089066;28;20147;-77
2023/05/06 05:56:24;;;;;;;20.63;14.40;;;15.50;99.90;;;;;;5085713;28;20115;-82
2023/05/06 05:58:49;;;;;;;17.80;12.98;;;15.70;99.90;;;;;;5088525;28;20043;-77
2023/05/06 06:01:16;;;;;;;16.58;11.90;;;16.20;99.90;;;;;;5070087;28;20043;-76
2023/05/06 06:03:42;;;;;;;19.25;14.18;;;14.30;99.90;;;;;;5088143;28;20036;-78
2023/05/06 06:06:08;;;;;;;18.33;13.30;;;17.40;99.90;;;;;;5083777;28;20031;-75
2023/05/06 06:08:34;;;;;;;19.05;14.63;;;14.40;99.90;;;;;;5071323;28;20036;-75
2023/05/06 06:11:02;;;;;;;19.73;12.88;;;14.90;99.90;;;;;;5057144;28;20044;-76
2023/05/06 06:13:28;;;;;;;17.15;12.85;;;14.80;99.90;;;;;;5071087;28;20043;-77
2023/05/06 06:15:55;;;;;;;18.10;12.90;;;14.90;99.90;;;;;;5069194;28;20180;-77
2023/05/06 06:18:21;;;;;;;20.08;14.02;;;14.30;99.90;;;;;;5100182;28;20043;-78
2023/05/06 06:20:47;;;;;;;19.92;14.00;;;14.40;99.90;;;;;;5083070;28;20040;-79
2023/05/06 06:23:13;;;;;;;18.02;13.45;;;16.10;99.90;;;;;;5087455;28;20087;-78
2023/05/06 06:25:38;;;;;;;17.02;12.52;;;14.30;99.90;;;;;;5054978;28;20039;-79
2023/05/06 06:28:04;;;;;;;22.20;15.45;;;17.70;99.90;;;;;;5053081;28;20044;-79
2023/05/06 06:30:30;;;;;;;22.00;14.27;;;15.30;99.90;;;;;;5051937;28;20064;-77
2023/05/06 06:32:57;;;;;;;18.75;13.70;;;16.80;99.90;;;;;;5098572;28;20047;-76
2023/05/06 06:35:23;;;;;;;18.67;13.35;;;17.60;99.90;;;;;;5086143;28;20060;-76
2023/05/06 06:37:49;;;;;;;18.50;13.30;;;16.80;99.90;;;;;;5083273;28;20089;-79
2023/05/06 06:40:16;;;;;;;17.50;13.98;;;15.70;99.90;;;;;;5052591;28;20123;-79
2023/05/06 06:42:42;;;;;;;16.95;13.23;;;15.50;99.90;;;;;;5064057;28;20051;-78
2023/05/06 06:45:09;;;;;;;16.90;13.07;;;15.80;99.90;;;;;;5035462;28;20218;-76
2023/05/06 06:47:35;;;;;;;16.60;13.13;;;15.50;99.90;;;;;;5034925;28;20075;-80
2023/05/06 06:50:00;;;;;;;17.52;13.75;;;14.50;99.90;;;;;;5048002;28;20075;-78
2023/05/06 06:52:26;;;;;;;18.92;13.38;;;14.60;99.90;;;;;;5074096;28;20591;-76
2023/05/06 06:54:52;;;;;;;18.42;13.65;;;14.80;99.90;;;;;;5080712;28;20041;-77
2023/05/06 06:57:18;;;;;;;20.25;14.48;;;15.10;99.90;;;;;;5069477;28;20044;-76
2023/05/06 06:59:44;;;;;;;20.63;14.27;;;15.80;99.90;;;;;;5087505;28;20196;-78
2023/05/06 07:02:09;;;;;;;17.25;13.18;;;15.00;99.90;;;;;;5082973;28;20068;-77
2023/05/06 07:04:35;;;;;;;21.42;15.32;;;16.60;99.90;;;;;;5080948;28;20040;-78
2023/05/06 07:07:01;;;;;;;17.48;13.25;;;16.00;99.90;;;;;;5034250;28;20137;-80
2023/05/06 07:09:27;;;;;;;18.83;12.55;;;18.00;99.90;;;;;;5034989;28;20137;-80
2023/05/06 07:11:53;;;;;;;17.15;12.48;;;14.80;99.90;;;;;;5069439;28;20032;-80
2023/05/06 07:14:19;;;;;;;17.98;12.70;;;15.70;99.90;;;;;;5069062;28;20043;-79
2023/05/06 07:16:45;;;;;;;16.52;12.85;;;15.40;99.90;;;;;;5064770;28;20545;-82
2023/05/06 07:19:16;;;;;;;17.85;12.68;;;18.10;99.90;;;;;;5064757;28;20044;-79
2023/05/06 07:21:42;;;;;;;18.95;14.38;;;16.30;99.90;;;;;;5069118;28;20139;-81
2023/05/06 07:24:14;;;;;;;18.25;14.73;;;17.10;99.90;;;;;;5063946;28;20126;-80
2023/05/06 07:26:40;;;;;;;20.60;13.65;;;16.20;99.90;;;;;;5085801;28;20139;-79
2023/05/06 07:29:05;;;;;;;17.23;12.75;;;15.60;99.90;;;;;;5052788;28;20119;-80
2023/05/06 07:31:32;;;;;;;17.65;12.90;;;15.30;99.90;;;;;;5067015;28;20548;-80
2023/05/06 07:33:58;;;;;;;17.95;13.48;;;17.10;99.90;;;;;;5068046;28;20065;-82
2023/05/06 07:36:25;;;;;;;16.33;12.93;;;16.70;99.90;;;;;;5055977;28;20052;-80
2023/05/06 07:38:51;;;;;;;17.48;12.30;;;15.20;99.90;;;;;;5069791;28;20044;-81
2023/05/06 07:41:17;;;;;;;16.33;12.80;;;15.20;99.90;;;;;;5070351;28;20036;-80
2023/05/06 07:43:43;;;;;;;17.17;13.52;;;16.00;99.90;;;;;;5072452;28;20036;-82
2023/05/06 07:46:09;;;;;;;14.65;12.05;;;17.60;99.90;;;;;;5069730;28;20036;-82
2023/05/06 07:48:35;;;;;;;15.93;12.52;;;15.10;99.90;;;;;;5085805;28;20040;-78
2023/05/06 07:51:03;;;;;;;19.98;13.02;;;18.10;99.90;;;;;;5086783;28;20606;-80
2023/05/06 07:53:31;;;;;;;21.05;14.50;;;16.10;99.90;;;;;;5053709;28;20071;-80
2023/05/06 07:56:00;;;;;;;19.58;14.00;;;15.40;99.90;;;;;;5059622;28;20036;-79
2023/05/06 07:58:27;;;;;;;21.48;14.52;;;17.90;99.90;;;;;;5052731;28;20027;-82
2023/05/06 08:00:53;;;;;;;17.27;13.40;;;16.10;99.90;;;;;;5067179;28;20031;-79
2023/05/06 08:03:19;;;;;;;20.20;14.73;;;16.00;99.90;;;;;;5070892;28;20051;-79
2023/05/06 08:05:45;;;;;;;21.80;15.63;;;16.40;99.90;;;;;;5061752;28;20536;-75
2023/05/06 08:08:10;;;;;;;22.08;14.52;;;16.50;99.90;;;;;;5081302;28;20048;-73
2023/05/06 08:10:36;;;;;;;19.05;13.68;;;17.30;99.90;;;;;;5082410;28;20411;-78
2023/05/06 08:13:02;;;;;;;17.35;12.40;;;17.60;99.90;;;;;;5060539;28;20156;-80
2023/05/06 08:15:28;;;;;;;17.70;13.43;;;16.30;99.90;;;;;;5077924;28;20035;-77
2023/05/06 08:17:54;;;;;;;18.33;13.52;;;18.80;99.90;;;;;;5037045;28;20503;-82
2023/05/06 08:20:20;;;;;;;18.05;13.75;;;18.00;99.90;;;;;;5059776;28;20112;-78
2023/05/06 08:22:46;;;;;;;17.25;13.07;;;16.40;99.90;;;;;;5080607;28;20127;-81
2023/05/06 08:25:12;;;;;;;18.05;12.57;;;16.80;99.90;;;;;;5069478;28;20063;-83
2023/05/06 08:27:38;;;;;;;17.77;12.20;;;16.30;99.90;;;;;;5049842;28;20044;-81
2023/05/06 08:30:04;;;;;;;18.40;13.35;;;18.90;99.90;;;;;;5069816;28;20165;-82
2023/05/06 08:32:30;;;;;;;17.95;12.48;;;16.80;99.90;;;;;;5070005;28;20032;-77
2023/05/06 08:34:56;;;;;;;17.40;12.07;;;18.60;99.90;;;;;;5066742;28;20048;-79
2023/05/06 08:37:21;;;;;;;15.55;12.18;;;19.00;99.90;;;;;;5088408;28;20055;-80
2023/05/06 08:39:47;;;;;;;15.30;11.52;;;17.40;99.90;;;;;;5034868;28;20171;-79
2023/05/06 08:42:13;;;;;;;15.85;11.32;;;17.90;99.90;;;;;;5052424;28;20087;-79
2023/05/06 08:44:41;;;;;;;13.45;11.07;;;17.90;99.90;;;;;;5083758;28;20036;-77
2023/05/06 08:47:07;;;;;;;15.63;11.25;;;17.20;99.90;;;;;;5071147;28;20105;-78
2023/05/06 08:49:36;;;;;;;13.80;11.05;;;19.90;99.90;;;;;;5044375;28;20103;-79
2023/05/06 08:52:05;;;;;;;13.65;11.00;;;17.90;99.90;;;;;;5053942;28;20035;-79
2023/05/06 08:54:35;;;;;;;13.00;10.23;;;19.60;99.90;;;;;;5075466;28;20036;-78
2023/05/06 08:57:09;;;;;;;13.48;10.70;;;20.80;99.90;;;;;;5069657;28;20123;-77
2023/05/06 08:59:35;;;;;;;12.88;10.23;;;18.80;99.90;;;;;;5064355;28;20055;-77
2023/05/06 09:02:05;;;;;;;13.48;11.10;;;18.70;99.90;;;;;;5067539;28;20044;-78
2023/05/06 09:04:38;;;;;;;13.63;10.90;;;19.80;99.90;;;;;;5072593;28;20048;-77
2023/05/06 09:07:04;;;;;;;13.38;10.60;;;19.10;99.90;;;;;;5087751;28;20039;-81
2023/05/06 09:09:30;;;;;;;11.82;9.50;;;18.80;99.90;;;;;;5055062;28;20091;-78
2023/05/06 09:11:56;;;;;;;13.00;10.75;;;20.40;99.90;;;;;;5065786;28;20047;-78
2023/05/06 09:14:24;;;;;;;11.00;9.13;;;19.70;99.90;;;;;;5059098;28;20392;-77
2023/05/06 09:17:15;;;;;;;12.57;9.18;;;20.70;99.90;;;;;;5037031;28;20032;-82
2023/05/06 09:19:57;;;;;;;10.30;8.32;;;20.10;99.90;;;;;;5087120;28;20054;-81
2023/05/06 09:22:25;;;;;;;11.07;8.38;;;19.30;99.90;;;;;;5052647;28;20048;-80
2023/05/06 09:24:55;;;;;;;13.00;7.90;;;20.00;99.90;;;;;;5065073;28;20448;-83
2023/05/06 09:27:32;;;;;;;11.35;8.00;;;20.50;99.90;;;;;;5070825;28;20037;-85
2023/05/06 09:30:06;;;;;;;8.90;7.55;;;20.70;99.90;;;;;;5093843;28;20039;-84
2023/05/06 09:32:32;;;;;;;13.85;7.50;;;20.70;99.90;;;;;;5071312;28;20551;-83
2023/05/06 09:34:58;;;;;;;10.13;8.20;;;20.20;99.90;;;;;;5087937;28;20474;-84
2023/05/06 09:37:26;;;;;;;11.50;8.48;;;20.50;99.90;;;;;;5072850;28;20071;-83
2023/05/06 09:39:59;;;;;;;10.85;8.88;;;21.10;99.90;;;;;;5072683;28;20036;-83
2023/05/06 09:42:27;;;;;;;10.20;8.70;;;21.60;99.90;;;;;;5068836;28;20032;-77
2023/05/06 09:44:58;;;;;;;10.40;8.40;;;21.30;99.90;;;;;;5050806;28;20075;-79
2023/05/06 09:47:25;;;;;;;10.07;7.93;;;21.20;99.90;;;;;;5086279;28;20568;-80
2023/05/06 09:49:59;;;;;;;9.13;8.18;;;20.90;99.90;;;;;;5073149;28;20485;-79
2023/05/06 09:52:29;;;;;;;10.60;8.18;;;21.30;99.90;;;;;;5084430;28;20953;-81
2023/05/06 09:54:56;;;;;;;10.02;8.57;;;21.70;99.90;;;;;;5100085;28;20499;-79
2023/05/06 09:57:22;;;;;;;10.23;8.93;;;22.30;99.90;;;;;;5082019;28;20035;-76
2023/05/06 09:59:50;;;;;;;11.23;8.68;;;21.60;99.90;;;;;;5091081;28;20122;-74
2023/05/06 10:02:18;;;;;;;8.27;7.25;;;21.50;99.90;;;;;;5087414;28;20052;-75
2023/05/06 10:04:47;;;;;;;10.38;8.18;;;21.90;99.90;;;;;;5080822;28;20572;-78
2023/05/06 10:07:14;;;;;;;11.05;8.93;;;21.40;99.90;;;;;;5072555;28;20079;-77
2023/05/06 10:09:41;;;;;;;7.90;7.10;;;21.80;99.90;;;;;;5071929;28;20040;-79
2023/05/06 10:12:09;;;;;;;8.65;7.00;;;22.20;99.90;;;;;;5069935;28;20380;-79
2023/05/06 10:14:36;;;;;;;10.50;8.15;;;21.50;99.90;;;;;;5051483;28;20036;-79
2023/05/06 10:17:08;;;;;;;8.40;7.47;;;21.80;99.90;;;;;;5070406;28;20090;-74
2023/05/06 10:19:34;;;;;;;9.98;8.32;;;21.60;99.90;;;;;;5110579;27;20933;-76
2023/05/06 10:22:21;;;;;;;9.18;8.27;;;21.60;99.90;;;;;;5085337;28;20090;-82
2023/05/06 10:24:58;;;;;;;9.35;8.35;;;21.90;99.90;;;;;;5078258;28;20108;-77
2023/05/06 10:27:24;;;;;;;9.10;8.20;;;22.00;99.90;;;;;;5061041;28;20507;-77
2023/05/06 10:29:59;;;;;;;9.15;8.25;;;22.00;99.90;;;;;;5067627;28;20066;-78
2023/05/06 10:32:30;;;;;;;9.07;7.78;;;22.20;99.90;;;;;;5084621;28;20028;-79
2023/05/06 10:35:03;;;;;;;8.23;7.43;;;22.20;99.90;;;;;;5082061;28;20047;-78
2023/05/06 10:37:30;;;;;;;8.48;7.65;;;22.60;99.90;;;;;;5054672;28;20052;-77
2023/05/06 10:39:56;;;;;;;7.95;7.15;;;22.70;99.90;;;;;;5086637;28;20062;-78
2023/05/06 10:42:27;;;;;;;7.63;6.82;;;22.40;99.90;;;;;;5069537;28;20079;-77
2023/05/06 10:44:57;;;;;;;9.30;8.00;;;22.30;99.90;;;;;;5086976;28;20055;-79
2023/05/06 10:47:23;;;;;;;8.07;7.28;;;22.60;99.90;;;;;;5085057;28;20157;-79
2023/05/06 10:50:18;;;;;;;8.38;7.57;;;22.50;99.90;;;;;;5070442;28;20040;-77
2023/05/06 10:52:45;;;;;;;8.50;7.70;;;22.60;99.90;;;;;;5078629;28;20051;-78
2023/05/06 10:55:29;;;;;;;8.07;6.78;;;22.80;99.90;;;;;;5046058;28;20037;-77
2023/05/06 10:58:00;;;;;;;8.85;7.95;;;23.00;99.90;;;;;;5078057;28;20432;-77
2023/05/06 11:00:30;;;;;;;10.23;7.80;;;22.80;99.90;;;;;;5084454;28;20507;-79
2023/05/06 11:03:28;;;;;;;8.10;7.30;;;22.50;99.90;;;;;;5083826;28;20044;-79
2023/05/06 11:05:54;;;;;;;8.48;7.63;;;22.50;99.90;;;;;;5061674;28;20048;-79
2023/05/06 11:08:25;;;;;;;8.07;7.28;;;22.60;99.90;;;;;;5044415;28;20434;-78
2023/05/06 11:10:51;;;;;;;7.60;6.82;;;23.20;99.90;;;;;;5069349;28;20507;-79
2023/05/06 11:13:25;;;;;;;8.27;6.97;;;23.30;99.90;;;;;;5051492;28;20040;-79
2023/05/06 11:15:57;;;;;;;8.35;7.55;;;22.80;99.90;;;;;;5076302;28;20429;-79
2023/05/06 11:18:23;;;;;;;7.40;6.70;;;22.80;99.90;;;;;;5085588;28;20039;-79
2023/05/06 11:20:50;;;;;;;6.88;6.18;;;22.40;99.90;;;;;;5095751;28;20537;-79
2023/05/06 11:23:18;;;;;;;7.07;6.38;;;22.00;99.90;;;;;;5068574;28;20408;-78
2023/05/06 11:25:45;;;;;;;7.00;6.30;;;21.80;99.90;;;;;;5051335;28;20048;-80
2023/05/06 11:28:13;;;;;;;8.10;7.15;;;21.80;99.90;;;;;;5077053;28;20037;-79
2023/05/06 11:30:43;;;;;;;7.47;6.65;;;22.00;99.90;;;;;;5101143;28;20105;-78
2023/05/06 11:33:18;;;;;;;7.20;6.50;;;22.10;99.90;;;;;;5099298;28;20707;-80
2023/05/06 11:35:47;;;;;;;6.30;5.70;;;22.10;99.90;;;;;;5089371;28;20117;-76
2023/05/06 11:38:13;;;;;;;7.40;6.65;;;22.00;99.90;;;;;;5051475;28;20048;-76
2023/05/06 11:40:40;;;;;;;5.57;4.85;;;21.80;99.90;;;;;;5085883;28;20550;-78
2023/05/06 11:43:10;;;;;;;5.40;3.92;;;21.80;99.90;;;;;;5085333;28;20411;-77
2023/05/06 11:45:47;;;;;;;4.45;4.05;;;21.60;99.90;;;;;;5069782;28;20044;-77
2023/05/06 11:48:14;;;;;;;4.78;4.20;;;21.50;99.90;;;;;;5085497;28;20046;-79
2023/05/06 11:50:47;;;;;;;5.70;4.65;;;21.60;99.90;;;;;;5064926;28;20052;-74
2023/05/06 11:53:15;;;;;;;7.93;5.63;;;21.60;99.90;;;;;;5082519;28;20036;-75
2023/05/06 11:55:42;;;;;;;6.20;5.60;;;21.60;99.90;;;;;;5085109;28;20036;-77
2023/05/06 11:58:16;;;;;;;5.65;4.85;;;21.70;99.90;;;;;;5082023;28;20073;-78
2023/05/06 12:00:52;;;;;;;6.30;5.00;;;21.60;99.90;;;;;;5068608;28;22206;-81
2023/05/06 12:03:18;;;;;;;5.03;4.53;;;21.30;99.90;;;;;;5068126;28;20039;-80
2023/05/06 12:05:46;;;;;;;6.70;5.45;;;21.30;99.90;;;;;;5053700;28;20068;-79
2023/05/06 12:08:14;;;;;;;5.45;4.60;;;21.20;99.90;;;;;;5088492;28;20540;-77
2023/05/06 12:10:40;;;;;;;6.82;4.63;;;21.20;99.90;;;;;;5089259;28;20397;-77
2023/05/06 12:13:08;;;;;;;6.35;4.18;;;21.10;99.90;;;;;;5088462;28;20081;-80
2023/05/06 12:15:34;;;;;;;4.15;3.05;;;21.00;99.90;;;;;;5090903;28;20051;-80
2023/05/06 12:18:01;;;;;;;3.88;3.13;;;20.80;99.90;;;;;;5071140;28;20388;-78
2023/05/06 12:20:27;;;;;;;6.55;3.75;;;20.70;99.90;;;;;;5070321;28;20607;-77
2023/05/06 12:23:13;;;;;;;4.25;3.50;;;20.50;99.90;;;;;;5091629;28;20127;-81
2023/05/06 12:25:47;;;;;;;5.40;3.92;;;20.40;99.90;;;;;;5060637;28;20051;-78
2023/05/06 12:28:21;;;;;;;8.75;5.10;;;20.40;99.90;;;;;;5091367;28;20411;-81
2023/05/06 12:30:50;;;;;;;6.85;4.72;;;20.20;99.90;;;;;;5072990;28;20126;-82
2023/05/06 12:33:15;;;;;;;7.35;6.53;;;20.10;99.90;;;;;;5073701;28;20494;-81
2023/05/06 12:35:44;;;;;;;10.65;7.20;;;20.00;99.90;;;;;;5070200;28;20084;-79